Flight Track Log - Related Links

Times and Time Zones

All times are in EDT time to prevent confusion due to time zone crossing. See the QXE2079 flight status page for this flight to view local times or setup timezone preferences in your user account.


Time Position Orientation Groundspeed Altitude Reporting Facility
EDT Latitude Longitude Course Direction KTS MPH feet Rate Location/Type
Sun 05:19:37 PM 46.1175 -118.2794 293° West 145 167 20,000  Level Seattle Center
Sun 05:20:38 PM 46.1369 -118.3447 293° West 208 239 4,500 -6,246 Descending Seattle Center
Sun 05:21:39 PM 46.1517 -118.4203 286° West 204 235 7,300 2,066 Climbing Seattle Center
Sun 05:22:40 PM 46.1617 -118.5011 280° West 202 232 8,700 1,339 Climbing Seattle Center
Sun 05:23:40 PM 46.1786 -118.6036 283° West 235 270 10,000 1,488 Climbing Seattle Center
Sun 05:24:41 PM 46.1997 -118.7322 283° West 263 303 11,700 1,623 Climbing Seattle Center
Sun 05:25:42 PM 46.2239 -118.8378 288° West 272 313 13,300 1,574 Climbing Seattle Center
Sun 05:26:43 PM 46.2458 -118.9367 288° West 267 307 14,900 1,426 Climbing Seattle Center
Sun 05:27:44 PM 46.2689 -119.0394 288° West 269 310 16,200 1,190 Climbing Seattle Center
Sun 05:28:44 PM 46.2908 -119.1414 287° West 266 306 17,300 1,140 Climbing Seattle Center
Sun 05:29:45 PM 46.3128 -119.2450 287° West 268 308 18,500 1,180 Climbing Seattle Center
Sun 05:30:46 PM 46.3367 -119.3494 288° West 271 312 19,700 738 Climbing Seattle Center
Sun 05:31:47 PM 46.3594 -119.4572 287° West 274 315 20,000 149 Climbing Seattle Center
Sun 05:32:47 PM 46.3836 -119.5703 287° West 281 323 20,000  Level Seattle Center
Sun 05:33:48 PM 46.4097 -119.6886 288° West 292 336 20,000  Level Seattle Center
Sun 05:34:49 PM 46.4364 -119.8131 287° West 310 357 20,000  Level Seattle Center
Sun 05:35:50 PM 46.4608 -119.9308 287° West 307 353 20,000  Level Seattle Center
Sun 05:36:50 PM 46.4858 -120.0486 287° West 306 352 20,000  Level Seattle Center
Sun 05:37:51 PM 46.5111 -120.1661 287° West 307 353 20,000  Level Seattle Center
Sun 05:38:52 PM 46.5408 -120.3139 286° West 318 366 20,000  Level Seattle Center
Sun 05:39:53 PM 46.5672 -120.4361 287° West 318 366 20,000  Level Seattle Center
Sun 05:40:54 PM 46.6169 -120.5489 303° West 333 383 20,000  Level Seattle Center
Sun 05:41:54 PM 46.6722 -120.6589 306° West 339 390 20,000  Level Seattle Center
Sun 05:42:55 PM 46.7231 -120.7683 304° West 330 380 20,000  Level Seattle Center
Sun 05:43:56 PM 46.7753 -120.8803 304° West 333 383 20,000  Level Seattle Center
Sun 05:44:57 PM 46.8281 -120.9922 305° West 335 386 20,000  Level Seattle Center
Sun 05:45:58 PM 46.8808 -121.1050 304° West 337 388 20,000  Level Seattle Center
Sun 05:46:58 PM 46.9336 -121.2183 304° West 337 388 20,000  Level Seattle Center
Sun 05:47:59 PM 46.9856 -121.3333 304° West 339 390 20,000 -148 Level Seattle Center
Sun 05:49:00 PM 47.0408 -121.4486 305° West 337 388 19,700 -939 Descending Seattle Center
Sun 05:49:54 PM 47.0961 -121.5669 304° West 344 396 18,200 -1,565 Descending Seattle Center
Sun 05:50:55 PM 47.1483 -121.6811 304° West 336 387 16,700 -1,475 Descending Seattle Center
Sun 05:51:56 PM 47.2025 -121.7947 305° West 338 389 15,200 -1,230 Descending Seattle Center
Sun 05:52:57 PM 47.2539 -121.9067 304° West 334 384 14,200 -992 Descending Seattle Center
Sun 05:53:57 PM 47.3008 -122.0114 303° West 308 354 13,200 -992 Descending Seattle Center
Sun 05:54:58 PM 47.3486 -122.1192 303° West 312 359 12,200 -738 Descending Seattle Center
Sun 05:55:59 PM 47.4197 -122.1878 327° Northwest 322 371 11,700 -1,180 Descending Seattle Center
Sun 05:57:00 PM 47.5075 -122.1753 North 313 360 9,800 -1,934 Descending Seattle Center
Sun 05:58:00 PM 47.5906 -122.1686 North 293 337 7,800 -2,000 Descending Seattle Center
Sun 06:00:00 PM 47.4691 -122.2922 215° Southwest  Level Estimated

Login

Don't have an account? Register now (free) for customized features, flight alerts, and more!